JBU7532 KEWR-KRDU
Flight info
| Callsign | JBU7532 |
|---|---|
| Flight time | N/A |
| Altitude | 32000 |
| Route | ELVAE NECCK WHITE Q409 VILLS NALES Q141 HOUKY TAQLE3 |
| Aircraft | A20N/M-SDE2E3FGHIRWXY/LB1 |
Departure
| Time | 2026-05-06 23:45 |
|---|---|
| Airport | Newark Liberty International Airport (KEWR) |
Arrival
| Time | N/A |
|---|---|
| Airport | Raleigh-Durham International Airport (KRDU) |
| Time | Latitude | Longitude | Altitude | Speed | Heading |
|---|---|---|---|---|---|
| 2026-05-06 23:26 | 40.69188 | -74.17341 | 16 ft | 0 kts | 275° |
| 2026-05-06 23:34 | 40.69185 | -74.17302 | 18 ft | 6 kts | 276° |
| 2026-05-06 23:34 | 40.69174 | -74.17248 | 17 ft | 6 kts | 297° |
| 2026-05-06 23:34 | 40.69145 | -74.17209 | 19 ft | 6 kts | 345° |
| 2026-05-06 23:35 | 40.69128 | -74.17209 | 19 ft | 0 kts | 19° |
| 2026-05-06 23:37 | 40.69128 | -74.17208 | 19 ft | 1 kts | 19° |
| 2026-05-06 23:37 | 40.69131 | -74.17207 | 19 ft | 0 kts | 19° |
| 2026-05-06 23:38 | 40.69202 | -74.17169 | 18 ft | 18 kts | 24° |
| 2026-05-06 23:38 | 40.69345 | -74.17078 | 17 ft | 27 kts | 25° |
| 2026-05-06 23:38 | 40.69526 | -74.16963 | 19 ft | 32 kts | 26° |
| 2026-05-06 23:38 | 40.69693 | -74.16760 | 20 ft | 34 kts | 51° |
| 2026-05-06 23:39 | 40.69912 | -74.16597 | 15 ft | 39 kts | 26° |
| 2026-05-06 23:39 | 40.70053 | -74.16507 | 15 ft | 0 kts | 25° |
| 2026-05-06 23:39 | 40.70144 | -74.16469 | 17 ft | 15 kts | 6° |
| 2026-05-06 23:39 | 40.70297 | -74.16495 | 19 ft | 16 kts | 319° |
| 2026-05-06 23:40 | 40.70303 | -74.16502 | 19 ft | 0 kts | 314° |
| 2026-05-06 23:41 | 40.70327 | -74.16529 | 20 ft | 29 kts | 322° |
| 2026-05-06 23:41 | 40.70337 | -74.16744 | 22 ft | 29 kts | 221° |
| 2026-05-06 23:41 | 40.70266 | -74.16771 | 20 ft | 4 kts | 174° |
| 2026-05-06 23:41 | 40.70319 | -74.16787 | 21 ft | 10 kts | 154° |
| 2026-05-06 23:42 | 40.70290 | -74.16718 | 20 ft | 30 kts | 111° |
| 2026-05-06 23:42 | 40.70278 | -74.16387 | 18 ft | 32 kts | 93° |
| 2026-05-06 23:42 | 40.70277 | -74.16372 | 18 ft | 7 kts | 93° |
| 2026-05-06 23:42 | 40.70280 | -74.16424 | 18 ft | 9 kts | 96° |
| 2026-05-06 23:43 | 40.70267 | -74.16213 | 19 ft | 44 kts | 96° |
| 2026-05-06 23:43 | 40.70255 | -74.15983 | 20 ft | 41 kts | 94° |
| 2026-05-06 23:43 | 40.70251 | -74.15780 | 20 ft | 6 kts | 93° |
| 2026-05-06 23:43 | 40.70216 | -74.15683 | 20 ft | 15 kts | 135° |
| 2026-05-06 23:44 | 40.70206 | -74.15671 | 20 ft | 0 kts | 143° |
| 2026-05-06 23:44 | 40.70198 | -74.15665 | 20 ft | 12 kts | 147° |
| 2026-05-06 23:44 | 40.70094 | -74.15665 | 22 ft | 7 kts | 211° |
| 2026-05-06 23:45 | 40.70122 | -74.15637 | 21 ft | 10 kts | 227° |
| 2026-05-06 23:45 | 40.70127 | -74.15931 | 23 ft | 91 kts | 281° |
| 2026-05-06 23:45 | 40.70214 | -74.17190 | 119 ft | 173 kts | 272° |
| 2026-05-06 23:45 | 40.70385 | -74.18833 | 893 ft | 197 kts | 276° |
| 2026-05-06 23:46 | 40.70613 | -74.20711 | 1716 ft | 219 kts | 276° |
| 2026-05-06 23:46 | 40.70868 | -74.22753 | 2638 ft | 230 kts | 277° |
| 2026-05-06 23:46 | 40.71008 | -74.24886 | 3570 ft | 236 kts | 266° |
| 2026-05-06 23:46 | 40.70796 | -74.27010 | 4412 ft | 239 kts | 251° |
| 2026-05-06 23:47 | 40.69896 | -74.28850 | 4808 ft | 246 kts | 226° |
| 2026-05-06 23:47 | 40.68383 | -74.29941 | 4961 ft | 256 kts | 200° |
| 2026-05-06 23:47 | 40.66580 | -74.30212 | 5004 ft | 265 kts | 185° |
| 2026-05-06 23:47 | 40.64734 | -74.29997 | 5005 ft | 269 kts | 178° |
| 2026-05-06 23:48 | 40.62895 | -74.29583 | 5126 ft | 269 kts | 175° |
| 2026-05-06 23:48 | 40.61050 | -74.29123 | 5370 ft | 270 kts | 175° |
| 2026-05-06 23:48 | 40.59817 | -74.28819 | 5540 ft | 270 kts | 175° |
| 2026-05-06 23:48 | 40.57962 | -74.28375 | 5880 ft | 273 kts | 176° |
| 2026-05-06 23:49 | 40.56244 | -74.27979 | 6318 ft | 271 kts | 176° |
| 2026-05-06 23:49 | 40.54378 | -74.27480 | 6856 ft | 277 kts | 174° |
| 2026-05-06 23:49 | 40.52489 | -74.27163 | 7460 ft | 271 kts | 185° |
| 2026-05-06 23:49 | 40.50605 | -74.27168 | 8090 ft | 272 kts | 189° |
| 2026-05-06 23:50 | 40.48738 | -74.27217 | 8716 ft | 272 kts | 189° |
| 2026-05-06 23:50 | 40.44891 | -74.27182 | 9988 ft | 277 kts | 188° |
| 2026-05-06 23:50 | 40.42930 | -74.27112 | 10586 ft | 281 kts | 187° |
| 2026-05-06 23:51 | 40.41033 | -74.27013 | 11191 ft | 271 kts | 187° |
| 2026-05-06 23:51 | 40.39159 | -74.26919 | 11807 ft | 263 kts | 188° |
| 2026-05-06 23:51 | 40.37342 | -74.26827 | 12440 ft | 259 kts | 188° |
| 2026-05-06 23:51 | 40.35585 | -74.26740 | 13059 ft | 250 kts | 188° |
| 2026-05-06 23:52 | 40.33861 | -74.26666 | 13698 ft | 252 kts | 188° |
| 2026-05-06 23:52 | 40.32097 | -74.26592 | 14282 ft | 256 kts | 189° |
| 2026-05-06 23:52 | 40.30302 | -74.26516 | 14874 ft | 261 kts | 189° |
| 2026-05-06 23:52 | 40.28470 | -74.26435 | 15479 ft | 265 kts | 189° |
| 2026-05-06 23:53 | 40.26612 | -74.26349 | 16096 ft | 270 kts | 189° |
| 2026-05-06 23:53 | 40.24715 | -74.26261 | 16682 ft | 276 kts | 189° |
| 2026-05-06 23:53 | 40.22782 | -74.26170 | 16942 ft | 278 kts | 189° |
| 2026-05-06 23:53 | 40.20844 | -74.26075 | 17025 ft | 279 kts | 189° |
| 2026-05-06 23:54 | 40.18908 | -74.25979 | 17045 ft | 279 kts | 189° |
| 2026-05-06 23:54 | 40.16965 | -74.25884 | 17336 ft | 279 kts | 189° |
| 2026-05-06 23:54 | 40.15006 | -74.25795 | 17850 ft | 284 kts | 189° |
| 2026-05-06 23:54 | 40.13018 | -74.25704 | 18351 ft | 288 kts | 189° |
| 2026-05-06 23:55 | 40.11009 | -74.25608 | 18807 ft | 289 kts | 190° |
| 2026-05-06 23:55 | 40.08992 | -74.25511 | 19285 ft | 293 kts | 191° |
| 2026-05-06 23:55 | 40.06954 | -74.25420 | 19748 ft | 300 kts | 191° |
| 2026-05-06 23:55 | 40.04859 | -74.25319 | 20231 ft | 302 kts | 191° |
| 2026-05-06 23:56 | 40.02761 | -74.25222 | 20716 ft | 302 kts | 193° |
| 2026-05-06 23:56 | 40.00752 | -74.25589 | 21215 ft | 286 kts | 210° |
| 2026-05-06 23:56 | 39.98969 | -74.26701 | 21732 ft | 285 kts | 225° |
| 2026-05-06 23:56 | 39.97351 | -74.28273 | 22257 ft | 298 kts | 227° |
| 2026-05-06 23:57 | 39.95647 | -74.29931 | 22793 ft | 314 kts | 226° |
| 2026-05-06 23:57 | 39.93845 | -74.31660 | 23332 ft | 327 kts | 226° |
| 2026-05-06 23:57 | 39.91999 | -74.33413 | 23798 ft | 330 kts | 226° |
| 2026-05-06 23:57 | 39.90204 | -74.35107 | 24234 ft | 332 kts | 226° |
| 2026-05-06 23:58 | 39.88330 | -74.36879 | 24689 ft | 334 kts | 226° |
| 2026-05-06 23:58 | 39.86448 | -74.38663 | 25159 ft | 336 kts | 226° |
| 2026-05-06 23:58 | 39.84559 | -74.40458 | 25624 ft | 338 kts | 226° |
| 2026-05-06 23:58 | 39.82657 | -74.42274 | 26110 ft | 339 kts | 227° |
| 2026-05-06 23:59 | 39.80873 | -74.44263 | 26596 ft | 336 kts | 232° |
| 2026-05-06 23:59 | 39.79244 | -74.46427 | 27097 ft | 336 kts | 234° |
| 2026-05-06 23:59 | 39.77611 | -74.48616 | 27597 ft | 339 kts | 234° |
| 2026-05-06 23:59 | 39.75958 | -74.50818 | 28117 ft | 342 kts | 234° |
| 2026-05-07 00:00 | 39.74290 | -74.53034 | 28630 ft | 344 kts | 234° |
| 2026-05-07 00:00 | 39.72603 | -74.55270 | 29180 ft | 348 kts | 234° |
| 2026-05-07 00:00 | 39.70903 | -74.57522 | 29729 ft | 351 kts | 234° |
| 2026-05-07 00:00 | 39.69193 | -74.59784 | 30224 ft | 353 kts | 234° |
| 2026-05-07 00:01 | 39.67460 | -74.62075 | 30705 ft | 356 kts | 234° |
| 2026-05-07 00:01 | 39.65722 | -74.64369 | 31175 ft | 355 kts | 234° |
| 2026-05-07 00:01 | 39.64014 | -74.66617 | 31629 ft | 354 kts | 235° |
| 2026-05-07 00:01 | 39.62295 | -74.68880 | 31835 ft | 352 kts | 235° |
| 2026-05-07 00:02 | 39.58869 | -74.73398 | 31881 ft | 351 kts | 235° |
| 2026-05-07 00:02 | 39.55446 | -74.77905 | 31882 ft | 351 kts | 235° |
| 2026-05-07 00:03 | 39.52022 | -74.82404 | 31882 ft | 351 kts | 235° |
| 2026-05-07 00:03 | 39.48595 | -74.86899 | 31877 ft | 350 kts | 235° |
| 2026-05-07 00:04 | 39.45173 | -74.91382 | 31874 ft | 350 kts | 235° |
| 2026-05-07 00:04 | 39.41741 | -74.95871 | 31870 ft | 350 kts | 235° |
| 2026-05-07 00:05 | 39.38314 | -75.00347 | 31875 ft | 350 kts | 235° |
| 2026-05-07 00:05 | 39.34890 | -75.04811 | 31873 ft | 350 kts | 235° |
| 2026-05-07 00:06 | 39.31464 | -75.09272 | 31875 ft | 350 kts | 235° |
| 2026-05-07 00:06 | 39.28027 | -75.13744 | 31873 ft | 350 kts | 235° |
| 2026-05-07 00:07 | 39.24694 | -75.18079 | 31874 ft | 350 kts | 235° |
| 2026-05-07 00:07 | 39.21367 | -75.22395 | 31874 ft | 350 kts | 235° |
| 2026-05-07 00:08 | 39.17886 | -75.26918 | 31863 ft | 369 kts | 235° |
| 2026-05-07 00:08 | 39.14214 | -75.31668 | 31859 ft | 374 kts | 234° |
| 2026-05-07 00:09 | 39.10644 | -75.36278 | 31856 ft | 394 kts | 234° |